Impacts TAF Board
For situational awareness. Not to be used for flight planning purposes.
IDs:

KORD - Chicago/O'Hare Intl, IL, US

Issued at 1740 UTC 20 Jan 2019
Updated at 1754 UTC 20 Jan 2019
Potential Impact None Slight Moderate High
Time1751Z 20/18Z 20/19Z 20/20Z 20/21Z 20/22Z 20/23Z 21/00Z 21/01Z 21/02Z 21/03Z 21/04Z 21/05Z 21/06Z>>
Type OBS PRVL PRVL PRVL PRVL PRVL PRVL PRVL PRVL PRVL PRVL PRVL PRVL PRVL
  [TEMP]  
VIS 10 >6 >6 >6 >6 >6 >6 >6 >6 >6 >6 >6 >6 >6
  [2]  
CIG -- -- -- -- -- -- -- -- -- -- -- 35 35 35
  [15]  
Cover FEW FEW FEW FEW FEW FEW FEW FEW SCT SCT SCT BKN BKN BKN
  [OVC]  
FltCat VFR VFR VFR VFR VFR VFR VFR VFR VFR VFR VFR VFR VFR VFR
  [IFR]  
WX -- -- -- -- -- -- -- -- -- -- -- VCSH VCSH VCSH
  [-SHSN]  
WDir 340 340 340 340 340 340 340 340 340 340 340 350 350 350
[350]
WSpd 14 11 11 11 11 11 11 11 8 8 8 6 6 6
  [6]  
WGst -- -- -- -- -- -- -- -- -- -- -- -- -- --
  [--]  
Raw TAF
KORD 201740Z 2018/2124 34011KT P6SM FEW030 FEW250
  FM210100 34008KT P6SM SCT030
  FM210400 35006KT P6SM VCSH BKN035
  TEMPO 2106/2109 2SM -SHSN OVC015
  FM210900 VRB04KT P6SM BKN025
  FM211500 16008KT P6SM SCT030
  FM211900 15011KT P6SM BKN250


Raw METAR
KORD 201751Z 34014KT 10SM FEW025 FEW050 FEW250 M11/M18 A3029 RMK AO2 SLP271 4/005 933006 T11061178 11106 21144 51009 $
KORD 201651Z 34012KT 10SM FEW025 FEW040 FEW250 M11/M17 A3029 RMK AO2 SLP271 T11111172 $
KORD 201551Z COR 34013KT 10SM FEW023 FEW040 M12/M18 A3028 RMK AO2 SLP269 P0000 T11221178 $
KORD 201451Z 33013KT 10SM FEW023 FEW040 M14/M19 A3026 RMK AO2 SLP262 T11391189 51016 $

METAR Board
Radar Display
Forecast Discussion
For situational awareness. Not to be used for flight planning purposes.